createdAt,value
2022-12-27T00:00:52.086Z,9.55
2022-12-27T00:03:18.512Z,9.50
2022-12-27T00:05:44.822Z,9.51
2022-12-27T00:08:11.090Z,9.51
2022-12-27T00:10:37.375Z,9.48
2022-12-27T00:13:03.649Z,9.44
2022-12-27T00:15:29.896Z,9.38
2022-12-27T00:17:56.165Z,9.41
2022-12-27T00:20:22.415Z,9.39
2022-12-27T00:22:48.673Z,9.28
2022-12-27T00:25:14.939Z,9.29
2022-12-27T00:27:41.197Z,9.32
2022-12-27T00:30:07.461Z,9.30
2022-12-27T00:32:33.727Z,9.37
2022-12-27T00:35:00.001Z,9.30
2022-12-27T00:37:26.265Z,9.24
2022-12-27T00:39:52.524Z,9.26
2022-12-27T00:42:18.883Z,9.23
2022-12-27T00:44:45.135Z,9.23
2022-12-27T00:47:11.377Z,9.24
2022-12-27T00:49:37.657Z,9.23
2022-12-27T00:52:03.917Z,9.23
2022-12-27T00:54:30.166Z,9.20
2022-12-27T00:56:56.443Z,9.21
2022-12-27T00:59:22.810Z,9.21
2022-12-27T01:01:49.197Z,9.22
2022-12-27T01:04:15.536Z,9.21
2022-12-27T01:06:41.828Z,9.19
2022-12-27T01:09:08.095Z,9.15
2022-12-27T01:11:34.368Z,9.09
2022-12-27T01:14:00.645Z,9.09
2022-12-27T01:16:26.962Z,9.12
2022-12-27T01:18:53.236Z,9.12
2022-12-27T01:21:19.497Z,9.11
2022-12-27T01:23:45.765Z,9.12
2022-12-27T01:26:12.031Z,9.17
2022-12-27T01:28:38.306Z,9.19
2022-12-27T01:31:04.567Z,9.15
2022-12-27T01:33:30.817Z,9.03
2022-12-27T01:35:57.087Z,9.05
2022-12-27T01:38:23.360Z,9.11
2022-12-27T01:40:49.665Z,9.14
2022-12-27T01:43:15.909Z,9.10
2022-12-27T01:45:42.235Z,9.05
2022-12-27T01:48:08.496Z,9.02
2022-12-27T01:50:34.770Z,8.99
2022-12-27T01:53:01.010Z,9.04
2022-12-27T01:55:27.258Z,8.93
2022-12-27T01:57:53.618Z,9.02
2022-12-27T02:00:19.874Z,9.01
2022-12-27T02:02:46.187Z,9.01
2022-12-27T02:05:12.516Z,9.07
2022-12-27T02:07:38.782Z,8.96
2022-12-27T02:10:05.117Z,8.96
2022-12-27T02:12:31.363Z,8.99
2022-12-27T02:14:57.609Z,8.97
2022-12-27T02:17:23.869Z,8.97
2022-12-27T02:19:50.120Z,8.97
2022-12-27T02:22:16.388Z,8.96
2022-12-27T02:24:42.660Z,8.94
2022-12-27T02:27:09.001Z,8.93
2022-12-27T02:29:35.279Z,8.94
2022-12-27T02:32:01.553Z,8.97
2022-12-27T02:34:27.806Z,8.89
2022-12-27T02:36:54.058Z,8.86
2022-12-27T02:39:20.330Z,8.87
2022-12-27T02:41:46.596Z,8.87
2022-12-27T02:44:12.857Z,8.85
2022-12-27T02:46:39.215Z,8.74
2022-12-27T02:49:05.528Z,8.71
2022-12-27T02:51:31.778Z,8.76
2022-12-27T02:53:58.062Z,8.76
2022-12-27T02:56:24.309Z,8.71
2022-12-27T02:58:50.602Z,8.69
2022-12-27T03:01:16.944Z,8.73
2022-12-27T03:03:44.832Z,8.63
2022-12-27T03:06:11.237Z,8.70
2022-12-27T03:08:37.557Z,8.70
2022-12-27T03:11:03.815Z,8.73
2022-12-27T03:13:30.063Z,8.69
2022-12-27T03:15:56.359Z,8.69
2022-12-27T03:18:22.645Z,8.71
2022-12-27T03:20:48.920Z,8.67
2022-12-27T03:23:15.194Z,8.66
2022-12-27T03:25:41.458Z,8.67
2022-12-27T03:28:07.708Z,8.68
2022-12-27T03:30:33.952Z,8.69
2022-12-27T03:33:00.239Z,8.69
2022-12-27T03:35:26.505Z,8.70
2022-12-27T03:37:52.761Z,8.68
2022-12-27T03:40:18.996Z,8.66
2022-12-27T03:42:45.252Z,8.65
2022-12-27T03:45:11.560Z,8.70
2022-12-27T03:47:37.850Z,8.66
2022-12-27T03:50:04.118Z,8.65
2022-12-27T03:52:30.352Z,8.68
2022-12-27T03:54:56.604Z,8.71
2022-12-27T03:57:22.868Z,8.70
2022-12-27T03:59:49.117Z,8.64
2022-12-27T04:02:15.478Z,8.61
2022-12-27T04:04:41.951Z,8.60
2022-12-27T04:07:08.210Z,8.62
2022-12-27T04:09:34.543Z,8.66
2022-12-27T04:12:00.801Z,8.66
2022-12-27T04:14:27.092Z,8.65
2022-12-27T04:16:53.368Z,8.60
2022-12-27T04:19:19.617Z,8.58
2022-12-27T04:21:45.878Z,8.60
2022-12-27T04:24:12.134Z,8.53
2022-12-27T04:26:38.392Z,8.55
2022-12-27T04:29:04.632Z,8.56
2022-12-27T04:31:30.938Z,8.57
2022-12-27T04:33:57.243Z,8.58
2022-12-27T04:36:23.487Z,8.60
2022-12-27T04:38:49.775Z,8.59
2022-12-27T04:41:16.032Z,8.62
2022-12-27T04:43:42.303Z,8.59
2022-12-27T04:46:08.605Z,8.59
2022-12-27T04:48:35.068Z,8.58
2022-12-27T04:51:01.331Z,8.58
2022-12-27T04:53:27.596Z,8.62
2022-12-27T04:55:53.869Z,8.59
2022-12-27T04:58:20.129Z,8.58
2022-12-27T05:00:46.376Z,8.58
2022-12-27T05:03:12.776Z,8.53
2022-12-27T05:05:39.103Z,8.54
2022-12-27T05:08:05.342Z,8.56
2022-12-27T05:10:31.673Z,8.58
2022-12-27T05:12:57.949Z,8.58
2022-12-27T05:15:24.219Z,8.56
2022-12-27T05:17:50.500Z,8.57
2022-12-27T05:20:16.770Z,8.56
2022-12-27T05:22:43.026Z,8.53
2022-12-27T05:25:09.335Z,8.40
2022-12-27T05:27:35.620Z,8.36
2022-12-27T05:30:01.885Z,8.38
2022-12-27T05:32:29.201Z,8.36
2022-12-27T05:34:55.474Z,8.39
2022-12-27T05:37:21.727Z,8.38
2022-12-27T05:39:48.014Z,8.31
2022-12-27T05:42:14.360Z,8.20
2022-12-27T05:44:40.707Z,8.21
2022-12-27T05:47:06.983Z,8.16
2022-12-27T05:49:33.261Z,8.13
2022-12-27T05:51:59.531Z,8.00
2022-12-27T05:54:25.798Z,7.98
2022-12-27T05:56:52.053Z,7.95
2022-12-27T05:59:18.317Z,7.96
2022-12-27T06:01:44.801Z,8.00
2022-12-27T06:04:11.152Z,8.07
2022-12-27T06:06:37.488Z,8.08
2022-12-27T06:09:03.843Z,8.05
2022-12-27T06:11:30.216Z,7.97
2022-12-27T06:13:56.515Z,7.92
2022-12-27T06:16:22.834Z,7.83
2022-12-27T06:18:49.148Z,7.75
2022-12-27T06:21:15.452Z,7.68
2022-12-27T06:23:41.720Z,7.66
2022-12-27T06:26:08.003Z,7.65
2022-12-27T06:28:34.242Z,7.69
2022-12-27T06:31:00.508Z,7.72
2022-12-27T06:33:26.774Z,7.71
2022-12-27T06:35:53.046Z,7.68
2022-12-27T06:38:19.304Z,7.70
2022-12-27T06:40:45.564Z,7.67
2022-12-27T06:43:11.815Z,7.66
2022-12-27T06:45:39.027Z,7.61
2022-12-27T06:48:05.315Z,7.61
2022-12-27T06:50:31.588Z,7.57
2022-12-27T06:52:57.857Z,7.53
2022-12-27T06:55:24.143Z,7.46
2022-12-27T06:57:50.516Z,7.46
2022-12-27T07:00:16.778Z,7.48
2022-12-27T07:02:43.156Z,7.48
2022-12-27T07:05:09.538Z,7.46
2022-12-27T07:07:35.807Z,7.48
2022-12-27T07:10:02.090Z,7.50
2022-12-27T07:12:31.798Z,7.61
2022-12-27T07:15:02.649Z,7.66
2022-12-27T07:17:28.928Z,7.70
2022-12-27T07:19:55.177Z,7.69
2022-12-27T07:22:21.482Z,7.69
2022-12-27T07:24:47.745Z,7.62
2022-12-27T07:27:14.008Z,7.59
2022-12-27T07:29:45.277Z,7.58
2022-12-27T07:32:12.030Z,7.50
2022-12-27T07:34:38.283Z,7.49
2022-12-27T07:37:04.588Z,7.47
2022-12-27T07:39:30.849Z,7.45
2022-12-27T07:41:57.113Z,7.36
2022-12-27T07:44:23.372Z,7.31
2022-12-27T07:46:49.652Z,7.22
2022-12-27T07:49:18.052Z,7.22
2022-12-27T07:51:44.479Z,7.16
2022-12-27T07:54:10.783Z,7.13
2022-12-27T07:56:37.053Z,7.14
2022-12-27T07:59:03.313Z,7.13
2022-12-27T08:01:29.764Z,7.14
2022-12-27T08:03:56.238Z,7.13
2022-12-27T08:06:22.491Z,7.09
2022-12-27T08:08:48.748Z,7.11
2022-12-27T08:11:15.027Z,7.10
2022-12-27T08:13:41.374Z,7.14
2022-12-27T08:16:07.649Z,7.13
2022-12-27T08:18:33.945Z,7.10
2022-12-27T08:21:00.216Z,7.09
2022-12-27T08:23:26.487Z,7.10
2022-12-27T08:25:52.742Z,7.07
2022-12-27T08:28:19.045Z,7.08
2022-12-27T08:30:45.340Z,7.07
2022-12-27T08:33:11.687Z,7.09
2022-12-27T08:35:54.618Z,7.06
2022-12-27T08:38:21.340Z,7.03
2022-12-27T08:40:47.606Z,7.03
2022-12-27T08:43:13.853Z,6.99
2022-12-27T08:45:40.130Z,6.98
2022-12-27T08:48:06.584Z,6.99
2022-12-27T08:50:32.879Z,6.95
2022-12-27T08:52:59.182Z,6.94
2022-12-27T08:55:25.484Z,6.91
2022-12-27T08:57:51.758Z,6.86
2022-12-27T09:00:18.017Z,6.88
2022-12-27T09:02:44.412Z,6.84
2022-12-27T09:05:10.844Z,6.83
2022-12-27T09:07:37.109Z,6.85
2022-12-27T09:10:03.368Z,6.85
2022-12-27T09:12:29.643Z,6.88
2022-12-27T09:14:55.918Z,6.90
2022-12-27T09:17:22.214Z,6.89
2022-12-27T09:19:48.476Z,6.91
2022-12-27T09:22:14.752Z,6.91
2022-12-27T09:24:41.111Z,6.93
2022-12-27T09:27:07.367Z,6.98
2022-12-27T09:29:33.645Z,7.01
2022-12-27T09:31:59.886Z,7.01
2022-12-27T09:34:26.168Z,7.10
2022-12-27T09:36:52.452Z,7.20
2022-12-27T09:39:18.729Z,7.28
2022-12-27T09:42:45.925Z,7.33
2022-12-27T09:44:31.239Z,7.39
2022-12-27T09:46:57.508Z,7.40
2022-12-27T09:49:23.764Z,7.40
2022-12-27T09:51:50.025Z,7.44
2022-12-27T09:54:16.277Z,7.46
2022-12-27T09:57:17.684Z,7.50
2022-12-27T09:59:28.775Z,7.53
2022-12-27T10:01:55.164Z,7.55
2022-12-27T10:04:21.523Z,7.59
2022-12-27T10:06:47.816Z,7.63
2022-12-27T10:09:14.124Z,7.70
2022-12-27T10:11:40.390Z,7.72
2022-12-27T10:14:06.643Z,7.79
2022-12-27T10:16:32.913Z,7.87
2022-12-27T10:18:59.169Z,7.90
2022-12-27T10:21:25.429Z,7.93
2022-12-27T10:23:51.743Z,7.96
2022-12-27T10:26:18.009Z,7.97
2022-12-27T10:28:44.302Z,8.04
2022-12-27T10:31:10.685Z,8.09
2022-12-27T10:33:36.971Z,8.11
2022-12-27T10:36:03.245Z,8.15
2022-12-27T10:38:29.528Z,8.19
2022-12-27T10:40:55.803Z,8.38
2022-12-27T10:43:22.089Z,8.56
2022-12-27T10:45:48.568Z,8.63
2022-12-27T10:48:14.830Z,8.67
2022-12-27T10:50:41.082Z,8.77
2022-12-27T10:53:07.375Z,8.82
2022-12-27T10:55:33.635Z,8.88
2022-12-27T10:57:59.884Z,8.95
2022-12-27T11:00:26.225Z,8.97
2022-12-27T11:02:52.585Z,8.94
2022-12-27T11:05:18.976Z,8.98
2022-12-27T11:07:45.273Z,9.04
2022-12-27T11:10:11.547Z,9.03
2022-12-27T11:12:37.811Z,9.15
2022-12-27T11:15:04.055Z,9.15
2022-12-27T11:17:30.363Z,9.14
2022-12-27T11:19:56.637Z,9.12
2022-12-27T11:22:22.899Z,9.10
2022-12-27T11:24:49.149Z,9.21
2022-12-27T11:27:15.412Z,9.23
2022-12-27T11:29:41.666Z,9.26
2022-12-27T11:32:07.946Z,9.37
2022-12-27T11:34:34.215Z,9.50
2022-12-27T11:37:00.454Z,9.54
2022-12-27T11:39:26.723Z,9.58
2022-12-27T11:41:53.011Z,9.64
2022-12-27T11:44:19.306Z,9.66
2022-12-27T11:46:45.785Z,9.70
2022-12-27T11:49:12.085Z,9.60
2022-12-27T11:51:38.376Z,9.65
2022-12-27T11:54:04.636Z,9.61
2022-12-27T11:56:30.915Z,9.52
2022-12-27T11:58:57.169Z,9.49
2022-12-27T12:01:23.498Z,9.45
2022-12-27T12:03:49.783Z,9.43
2022-12-27T12:06:16.108Z,9.52
2022-12-27T12:08:42.377Z,9.66
2022-12-27T12:11:08.662Z,9.73
2022-12-27T12:13:34.903Z,9.90
2022-12-27T12:16:01.196Z,10.05
2022-12-27T12:18:27.460Z,10.25
2022-12-27T12:20:54.151Z,10.32
2022-12-27T12:23:20.447Z,10.35
2022-12-27T12:25:46.747Z,10.39
2022-12-27T12:28:30.291Z,10.38
2022-12-27T12:30:59.344Z,10.42
2022-12-27T12:33:25.600Z,10.56
2022-12-27T12:35:51.882Z,10.54
2022-12-27T12:38:18.131Z,10.47
2022-12-27T12:40:44.380Z,10.50
2022-12-27T12:43:10.637Z,10.48
2022-12-27T12:45:36.931Z,10.48
2022-12-27T12:48:03.244Z,10.48
2022-12-27T12:50:29.500Z,10.52
2022-12-27T12:52:55.792Z,10.53
2022-12-27T12:55:22.068Z,10.54
2022-12-27T12:57:48.334Z,10.53
2022-12-27T13:00:14.584Z,10.49
2022-12-27T13:02:40.969Z,10.52
2022-12-27T13:05:07.413Z,10.49
2022-12-27T13:07:39.360Z,10.45
2022-12-27T13:10:05.942Z,10.44
2022-12-27T13:12:32.282Z,10.35
2022-12-27T13:14:58.587Z,10.31
2022-12-27T13:17:24.859Z,10.29
2022-12-27T13:19:51.110Z,10.36
2022-12-27T13:22:17.377Z,10.37
2022-12-27T13:24:43.658Z,10.31
2022-12-27T13:27:09.938Z,10.27
2022-12-27T13:29:36.227Z,10.24
2022-12-27T13:32:02.544Z,10.23
2022-12-27T13:34:28.833Z,10.24
2022-12-27T13:36:55.109Z,10.21
2022-12-27T13:39:21.380Z,10.16
2022-12-27T13:41:47.733Z,10.13
2022-12-27T13:44:13.998Z,10.09
2022-12-27T13:46:42.921Z,10.04
2022-12-27T13:49:09.412Z,10.01
2022-12-27T13:51:36.226Z,9.98
2022-12-27T13:54:02.483Z,9.99
2022-12-27T13:56:53.583Z,10.01
2022-12-27T13:59:15.003Z,9.99
2022-12-27T14:01:41.296Z,9.93
2022-12-27T14:04:07.593Z,9.91
2022-12-27T14:06:33.842Z,9.88
2022-12-27T14:09:00.111Z,9.87
2022-12-27T14:11:26.358Z,9.85
2022-12-27T14:13:52.632Z,9.81
2022-12-27T14:16:18.889Z,9.81
2022-12-27T14:18:45.119Z,9.80
2022-12-27T14:21:11.369Z,9.79
2022-12-27T14:23:37.599Z,9.75
2022-12-27T14:26:03.853Z,9.73
2022-12-27T14:28:30.113Z,9.74
2022-12-27T14:30:56.420Z,9.72
2022-12-27T14:33:22.716Z,9.68
2022-12-27T14:35:48.988Z,9.69
2022-12-27T14:38:15.243Z,9.70
2022-12-27T14:40:41.479Z,9.74
2022-12-27T14:43:07.729Z,9.68
2022-12-27T14:45:33.993Z,9.66
2022-12-27T14:48:00.260Z,9.68
2022-12-27T14:50:26.510Z,9.68
2022-12-27T14:52:52.803Z,9.63
2022-12-27T14:55:19.078Z,9.61
2022-12-27T14:57:45.406Z,9.62
2022-12-27T15:00:11.697Z,9.60
2022-12-27T15:02:38.132Z,9.59
2022-12-27T15:05:04.484Z,9.57
2022-12-27T15:07:30.759Z,9.58
2022-12-27T15:09:57.006Z,9.56
2022-12-27T15:12:23.279Z,9.56
2022-12-27T15:14:49.559Z,9.57
2022-12-27T15:17:15.835Z,9.52
2022-12-27T15:19:42.098Z,9.53
2022-12-27T15:22:08.395Z,9.47
2022-12-27T15:24:34.658Z,9.45
2022-12-27T15:27:00.916Z,9.42
2022-12-27T15:29:27.169Z,9.39
2022-12-27T15:31:53.456Z,9.37
2022-12-27T15:34:19.707Z,9.38
2022-12-27T15:36:46.019Z,9.38
2022-12-27T15:39:12.294Z,9.38
2022-12-27T15:41:38.580Z,9.39
2022-12-27T15:44:04.907Z,9.43
2022-12-27T15:46:35.869Z,9.41
2022-12-27T15:49:02.778Z,9.37
2022-12-27T15:51:29.038Z,9.35
2022-12-27T15:53:55.311Z,9.30
2022-12-27T15:56:21.572Z,9.30
2022-12-27T15:58:47.829Z,9.27
2022-12-27T16:01:14.182Z,9.27
2022-12-27T16:03:40.564Z,9.23
2022-12-27T16:06:06.890Z,9.28
2022-12-27T16:08:33.173Z,9.23
2022-12-27T16:10:59.459Z,9.22
2022-12-27T16:13:25.717Z,9.21
2022-12-27T16:15:52.084Z,9.21
2022-12-27T16:18:18.459Z,9.19
2022-12-27T16:20:44.719Z,9.18
2022-12-27T16:23:11.011Z,9.14
2022-12-27T16:25:37.283Z,9.10
2022-12-27T16:28:03.544Z,9.10
2022-12-27T16:30:29.808Z,9.12
2022-12-27T16:32:56.076Z,9.09
2022-12-27T16:35:22.409Z,9.05
2022-12-27T16:37:48.677Z,9.06
2022-12-27T16:40:14.996Z,9.04
2022-12-27T16:42:41.259Z,9.01
2022-12-27T16:45:07.541Z,9.02
2022-12-27T16:47:33.823Z,8.99
2022-12-27T16:50:00.113Z,8.99
2022-12-27T16:52:26.388Z,8.98
2022-12-27T16:54:52.629Z,8.96
2022-12-27T16:57:19.991Z,8.98
2022-12-27T16:59:46.383Z,8.99
2022-12-27T17:02:12.718Z,8.96
2022-12-27T17:04:39.065Z,8.95
2022-12-27T17:07:05.340Z,8.96
2022-12-27T17:09:34.101Z,8.95
2022-12-27T17:12:00.499Z,8.91
2022-12-27T17:14:26.755Z,8.90
2022-12-27T17:16:53.110Z,8.91
2022-12-27T17:19:19.447Z,8.86
2022-12-27T17:21:45.717Z,8.82
2022-12-27T17:24:11.976Z,8.78
2022-12-27T17:26:38.237Z,8.78
2022-12-27T17:29:04.512Z,8.79
2022-12-27T17:31:30.834Z,8.73
2022-12-27T17:33:57.116Z,8.64
2022-12-27T17:36:23.397Z,8.57
2022-12-27T17:38:49.661Z,8.55
2022-12-27T17:41:16.316Z,8.52
2022-12-27T17:43:42.741Z,8.49
2022-12-27T17:46:09.020Z,8.52
2022-12-27T17:48:35.308Z,8.49
2022-12-27T17:51:01.572Z,8.45
2022-12-27T17:53:27.924Z,8.37
2022-12-27T17:55:54.193Z,8.35
2022-12-27T17:58:20.480Z,8.32
2022-12-27T18:00:46.783Z,8.29
2022-12-27T18:03:13.131Z,8.28
2022-12-27T18:05:39.463Z,8.17
2022-12-27T18:08:05.740Z,8.13
2022-12-27T18:10:32.046Z,8.17
2022-12-27T18:12:58.348Z,8.19
2022-12-27T18:15:24.679Z,8.20
2022-12-27T18:17:50.951Z,8.21
2022-12-27T18:20:17.203Z,8.24
2022-12-27T18:22:43.464Z,8.24
2022-12-27T18:25:09.722Z,8.24
2022-12-27T18:27:35.999Z,8.18
2022-12-27T18:30:02.300Z,8.13
2022-12-27T18:32:28.558Z,8.12
2022-12-27T18:34:54.842Z,8.04
2022-12-27T18:37:21.107Z,8.04
2022-12-27T18:39:47.403Z,8.01
2022-12-27T18:42:13.653Z,8.01
2022-12-27T18:44:40.481Z,8.00
2022-12-27T18:47:06.748Z,7.95
2022-12-27T18:49:33.152Z,7.96
2022-12-27T18:51:59.423Z,7.97
2022-12-27T18:54:25.692Z,7.92
2022-12-27T18:56:51.955Z,7.88
2022-12-27T18:59:18.232Z,7.83
2022-12-27T19:01:44.563Z,7.88
2022-12-27T19:04:10.886Z,7.89
2022-12-27T19:06:37.168Z,7.89
2022-12-27T19:09:03.472Z,7.89
2022-12-27T19:11:36.031Z,7.89
2022-12-27T19:14:02.659Z,7.89
2022-12-27T19:16:28.998Z,7.91
2022-12-27T19:18:55.307Z,7.93
2022-12-27T19:21:21.581Z,7.94
2022-12-27T19:23:47.911Z,7.96
2022-12-27T19:26:14.251Z,7.95
2022-12-27T19:28:40.524Z,7.93
2022-12-27T19:31:06.829Z,7.93
2022-12-27T19:33:33.142Z,7.95
2022-12-27T19:35:59.397Z,7.93
2022-12-27T19:38:25.678Z,7.89
2022-12-27T19:40:53.519Z,7.88
2022-12-27T19:43:21.698Z,7.86
2022-12-27T19:45:48.152Z,7.79
2022-12-27T19:48:14.444Z,7.74
2022-12-27T19:50:40.720Z,7.75
2022-12-27T19:53:06.963Z,7.72
2022-12-27T19:55:33.322Z,7.65
2022-12-27T19:57:59.597Z,7.64
2022-12-27T20:00:25.854Z,7.61
2022-12-27T20:02:52.201Z,7.51
2022-12-27T20:05:18.551Z,7.48
2022-12-27T20:08:04.777Z,7.48
2022-12-27T20:10:31.068Z,7.39
2022-12-27T20:12:57.333Z,7.36
2022-12-27T20:15:23.694Z,7.35
2022-12-27T20:17:49.961Z,7.33
2022-12-27T20:20:16.211Z,7.27
2022-12-27T20:22:42.478Z,7.26
2022-12-27T20:25:08.735Z,7.24
2022-12-27T20:27:35.009Z,7.29
2022-12-27T20:30:01.376Z,7.27
2022-12-27T20:32:27.643Z,7.27
2022-12-27T20:34:53.883Z,7.25
2022-12-27T20:37:24.564Z,7.20
2022-12-27T20:39:51.303Z,7.15
2022-12-27T20:42:17.587Z,7.10
2022-12-27T20:44:43.907Z,7.08
2022-12-27T20:47:10.308Z,7.05
2022-12-27T20:49:36.586Z,7.01
2022-12-27T20:52:02.849Z,7.03
2022-12-27T20:54:29.162Z,7.01
2022-12-27T20:56:55.443Z,7.00
2022-12-27T20:59:21.760Z,7.03
2022-12-27T21:01:53.011Z,7.03
2022-12-27T21:04:23.006Z,7.04
2022-12-27T21:06:49.276Z,7.06
2022-12-27T21:09:15.536Z,7.04
2022-12-27T21:11:41.833Z,7.04
2022-12-27T21:14:08.168Z,7.06
2022-12-27T21:16:34.543Z,7.08
2022-12-27T21:19:00.833Z,7.09
2022-12-27T21:21:28.716Z,7.07
2022-12-27T21:23:55.346Z,7.06
2022-12-27T21:26:21.668Z,7.07
2022-12-27T21:28:47.935Z,7.04
2022-12-27T21:31:14.246Z,7.03
2022-12-27T21:33:40.615Z,7.06
2022-12-27T21:36:06.944Z,7.04
2022-12-27T21:38:33.210Z,7.00
2022-12-27T21:40:59.473Z,6.99
2022-12-27T21:43:26.587Z,6.99
2022-12-27T21:45:54.932Z,6.99
2022-12-27T21:48:21.196Z,7.01
2022-12-27T21:50:47.461Z,7.01
2022-12-27T21:53:13.746Z,7.01
2022-12-27T21:55:40.035Z,7.04
2022-12-27T21:58:06.316Z,7.02
2022-12-27T22:00:32.644Z,7.00
2022-12-27T22:02:59.059Z,6.98
2022-12-27T22:05:25.632Z,6.95
2022-12-27T22:07:51.881Z,6.94
2022-12-27T22:10:18.139Z,6.92
2022-12-27T22:12:44.414Z,6.92
2022-12-27T22:15:10.682Z,6.94
2022-12-27T22:17:36.943Z,6.91
2022-12-27T22:20:03.202Z,6.90
2022-12-27T22:22:29.464Z,6.90
2022-12-27T22:24:55.699Z,6.80
2022-12-27T22:27:21.947Z,6.79
2022-12-27T22:29:48.197Z,6.77
2022-12-27T22:32:14.476Z,6.76
2022-12-27T22:34:40.737Z,6.73
2022-12-27T22:37:07.050Z,6.71
2022-12-27T22:39:33.321Z,6.71
2022-12-27T22:41:59.633Z,6.67
2022-12-27T22:44:26.759Z,6.67
2022-12-27T22:49:39.238Z,6.67
2022-12-27T22:52:05.514Z,6.71
2022-12-27T22:55:04.911Z,6.73
2022-12-27T22:57:18.034Z,6.74
2022-12-27T22:59:44.314Z,6.73
2022-12-27T23:02:10.700Z,6.69
2022-12-27T23:04:37.193Z,6.72
2022-12-27T23:07:03.504Z,6.73
2022-12-27T23:09:29.781Z,6.73
2022-12-27T23:11:56.100Z,6.72
2022-12-27T23:14:22.355Z,6.71
2022-12-27T23:16:48.622Z,6.65
2022-12-27T23:19:14.895Z,6.62
2022-12-27T23:21:41.217Z,6.62
2022-12-27T23:24:07.499Z,6.63
2022-12-27T23:26:33.766Z,6.58
2022-12-27T23:29:00.036Z,6.55
2022-12-27T23:31:26.320Z,6.59
2022-12-27T23:33:52.625Z,6.59
2022-12-27T23:36:18.897Z,6.55
2022-12-27T23:38:45.172Z,6.54
2022-12-27T23:41:11.432Z,6.50
2022-12-27T23:43:54.803Z,6.46
2022-12-27T23:46:21.872Z,6.48
2022-12-27T23:48:48.209Z,6.49
2022-12-27T23:51:14.483Z,6.49
2022-12-27T23:53:40.755Z,6.42
2022-12-27T23:56:07.018Z,6.31
2022-12-27T23:58:33.276Z,6.21
